SKW278 KSTS-KSNA
Flight info
| Callsign | SKW278 |
|---|---|
| Flight time | 1h 16m |
| Altitude | 33000 |
| Route | RREHD1 HADLY FFOIL LIBBO TILLT RUKKI1 |
| Aircraft | E75L/M-SDE3GILORVW/S |
Departure
| Time | 2026-05-04 01:01 |
|---|---|
| Airport | Charles M. Schulz Sonoma County Airport (KSTS) |
Arrival
| Time | 2026-05-04 02:17 |
|---|---|
| Airport | John Wayne Orange County International Airport (KSNA) |
| Time | Latitude | Longitude | Altitude | Speed | Heading |
|---|---|---|---|---|---|
| 2026-05-04 00:39 | 38.50971 | -122.80661 | 123 ft | 0 kts | 66° |
| 2026-05-04 00:54 | 38.50969 | -122.80666 | 123 ft | 2 kts | 66° |
| 2026-05-04 00:54 | 38.50962 | -122.80686 | 123 ft | 3 kts | 58° |
| 2026-05-04 00:54 | 38.50948 | -122.80704 | 122 ft | 3 kts | 25° |
| 2026-05-04 00:54 | 38.50929 | -122.80705 | 120 ft | 1 kts | 337° |
| 2026-05-04 00:55 | 38.50928 | -122.80705 | 120 ft | 2 kts | 337° |
| 2026-05-04 00:57 | 38.50955 | -122.80719 | 119 ft | 11 kts | 336° |
| 2026-05-04 00:57 | 38.51066 | -122.80778 | 121 ft | 20 kts | 338° |
| 2026-05-04 00:57 | 38.51202 | -122.80852 | 120 ft | 22 kts | 338° |
| 2026-05-04 00:58 | 38.51312 | -122.80931 | 119 ft | 8 kts | 293° |
| 2026-05-04 00:58 | 38.51325 | -122.80991 | 118 ft | 8 kts | 310° |
| 2026-05-04 00:58 | 38.51387 | -122.81029 | 118 ft | 17 kts | 339° |
| 2026-05-04 00:58 | 38.51505 | -122.81102 | 116 ft | 12 kts | 311° |
| 2026-05-04 00:59 | 38.51517 | -122.81126 | 117 ft | 2 kts | 300° |
| 2026-05-04 00:59 | 38.51519 | -122.81129 | 117 ft | 0 kts | 300° |
| 2026-05-04 01:00 | 38.51523 | -122.81139 | 120 ft | 5 kts | 299° |
| 2026-05-04 01:00 | 38.51550 | -122.81208 | 117 ft | 4 kts | 280° |
| 2026-05-04 01:00 | 38.51546 | -122.81223 | 121 ft | 3 kts | 232° |
| 2026-05-04 01:00 | 38.51435 | -122.81306 | 119 ft | 56 kts | 209° |
| 2026-05-04 01:01 | 38.50842 | -122.81727 | 153 ft | 132 kts | 207° |
| 2026-05-04 01:01 | 38.49988 | -122.82351 | 897 ft | 148 kts | 212° |
| 2026-05-04 01:01 | 38.49151 | -122.83164 | 1821 ft | 155 kts | 225° |
| 2026-05-04 01:01 | 38.48432 | -122.84242 | 2656 ft | 164 kts | 234° |
| 2026-05-04 01:02 | 38.47739 | -122.85415 | 3564 ft | 170 kts | 232° |
| 2026-05-04 01:02 | 38.46987 | -122.86625 | 4388 ft | 179 kts | 229° |
| 2026-05-04 01:02 | 38.46205 | -122.87888 | 5242 ft | 184 kts | 228° |
| 2026-05-04 01:02 | 38.45408 | -122.89197 | 6088 ft | 188 kts | 228° |
| 2026-05-04 01:03 | 38.44614 | -122.90512 | 6890 ft | 192 kts | 229° |
| 2026-05-04 01:03 | 38.43798 | -122.91875 | 7661 ft | 195 kts | 228° |
| 2026-05-04 01:03 | 38.42963 | -122.93267 | 8424 ft | 199 kts | 228° |
| 2026-05-04 01:03 | 38.42114 | -122.94684 | 9175 ft | 203 kts | 228° |
| 2026-05-04 01:04 | 38.41243 | -122.96143 | 9942 ft | 213 kts | 228° |
| 2026-05-04 01:04 | 38.40333 | -122.97670 | 10840 ft | 220 kts | 229° |
| 2026-05-04 01:04 | 38.39349 | -122.99307 | 11474 ft | 249 kts | 227° |
| 2026-05-04 01:04 | 38.38147 | -123.01129 | 11987 ft | 281 kts | 224° |
| 2026-05-04 01:05 | 38.36672 | -123.02882 | 12780 ft | 301 kts | 218° |
| 2026-05-04 01:05 | 38.34796 | -123.04247 | 13371 ft | 324 kts | 192° |
| 2026-05-04 01:05 | 38.32599 | -123.04376 | 13622 ft | 315 kts | 166° |
| 2026-05-04 01:05 | 38.30467 | -123.03530 | 14147 ft | 326 kts | 158° |
| 2026-05-04 01:06 | 38.28288 | -123.02662 | 15061 ft | 332 kts | 165° |
| 2026-05-04 01:06 | 38.26024 | -123.02199 | 16062 ft | 335 kts | 172° |
| 2026-05-04 01:06 | 38.23687 | -123.02005 | 17017 ft | 339 kts | 175° |
| 2026-05-04 01:06 | 38.21317 | -123.01911 | 17898 ft | 343 kts | 176° |
| 2026-05-04 01:07 | 38.18914 | -123.01834 | 18708 ft | 348 kts | 176° |
| 2026-05-04 01:07 | 38.16479 | -123.01753 | 19526 ft | 351 kts | 175° |
| 2026-05-04 01:07 | 38.14028 | -123.01663 | 20313 ft | 354 kts | 174° |
| 2026-05-04 01:07 | 38.11540 | -123.01557 | 21047 ft | 358 kts | 174° |
| 2026-05-04 01:08 | 38.09038 | -123.01433 | 21746 ft | 361 kts | 173° |
| 2026-05-04 01:08 | 38.06584 | -123.01002 | 22393 ft | 359 kts | 160° |
| 2026-05-04 01:08 | 38.04299 | -122.99785 | 23098 ft | 356 kts | 149° |
| 2026-05-04 01:08 | 38.02108 | -122.98287 | 23732 ft | 359 kts | 147° |
| 2026-05-04 01:09 | 37.99906 | -122.96757 | 24330 ft | 363 kts | 147° |
| 2026-05-04 01:09 | 37.97669 | -122.95248 | 24934 ft | 366 kts | 148° |
| 2026-05-04 01:09 | 37.95399 | -122.93745 | 25524 ft | 369 kts | 147° |
| 2026-05-04 01:09 | 37.93098 | -122.92233 | 26102 ft | 373 kts | 147° |
| 2026-05-04 01:10 | 37.90786 | -122.90719 | 26665 ft | 375 kts | 147° |
| 2026-05-04 01:10 | 37.88456 | -122.89192 | 27206 ft | 378 kts | 146° |
| 2026-05-04 01:10 | 37.86105 | -122.87650 | 27729 ft | 381 kts | 146° |
| 2026-05-04 01:10 | 37.83740 | -122.86097 | 28216 ft | 385 kts | 146° |
| 2026-05-04 01:11 | 37.81354 | -122.84530 | 28721 ft | 387 kts | 146° |
| 2026-05-04 01:11 | 37.78953 | -122.82954 | 29210 ft | 390 kts | 146° |
| 2026-05-04 01:11 | 37.76564 | -122.81385 | 29685 ft | 393 kts | 146° |
| 2026-05-04 01:11 | 37.74128 | -122.79786 | 30130 ft | 396 kts | 146° |
| 2026-05-04 01:12 | 37.71665 | -122.78168 | 30448 ft | 401 kts | 146° |
| 2026-05-04 01:12 | 37.69167 | -122.76528 | 30766 ft | 405 kts | 147° |
| 2026-05-04 01:12 | 37.66649 | -122.74876 | 31064 ft | 410 kts | 148° |
| 2026-05-04 01:12 | 37.64131 | -122.73223 | 31345 ft | 414 kts | 149° |
| 2026-05-04 01:13 | 37.61557 | -122.71534 | 31629 ft | 418 kts | 149° |
| 2026-05-04 01:13 | 37.58950 | -122.69825 | 31909 ft | 422 kts | 150° |
| 2026-05-04 01:13 | 37.56332 | -122.68109 | 32176 ft | 426 kts | 151° |
| 2026-05-04 01:13 | 37.53712 | -122.66392 | 32513 ft | 428 kts | 152° |
| 2026-05-04 01:14 | 37.51067 | -122.64660 | 32905 ft | 428 kts | 153° |
| 2026-05-04 01:14 | 37.48406 | -122.62918 | 33121 ft | 433 kts | 153° |
| 2026-05-04 01:14 | 37.45695 | -122.61144 | 33110 ft | 443 kts | 153° |
| 2026-05-04 01:14 | 37.42928 | -122.59333 | 32985 ft | 452 kts | 153° |
| 2026-05-04 01:15 | 37.40055 | -122.57838 | 33037 ft | 453 kts | 166° |
| 2026-05-04 01:15 | 37.36935 | -122.57295 | 33045 ft | 452 kts | 178° |
| 2026-05-04 01:15 | 37.33776 | -122.57157 | 32989 ft | 452 kts | 180° |
| 2026-05-04 01:16 | 37.27491 | -122.57039 | 33008 ft | 451 kts | 180° |
| 2026-05-04 01:16 | 37.21219 | -122.56893 | 33000 ft | 451 kts | 181° |
| 2026-05-04 01:17 | 37.14979 | -122.56729 | 33000 ft | 450 kts | 181° |
| 2026-05-04 01:17 | 37.08700 | -122.56564 | 32997 ft | 449 kts | 181° |
| 2026-05-04 01:18 | 37.02476 | -122.56303 | 33011 ft | 451 kts | 175° |
| 2026-05-04 01:18 | 36.99421 | -122.55277 | 33022 ft | 459 kts | 160° |
| 2026-05-04 01:18 | 36.96586 | -122.53408 | 33043 ft | 462 kts | 154° |
| 2026-05-04 01:19 | 36.91037 | -122.49337 | 33012 ft | 463 kts | 154° |
| 2026-05-04 01:19 | 36.85504 | -122.45266 | 33021 ft | 463 kts | 154° |
| 2026-05-04 01:20 | 36.79914 | -122.41179 | 33023 ft | 464 kts | 155° |
| 2026-05-04 01:20 | 36.74359 | -122.37126 | 33025 ft | 465 kts | 155° |
| 2026-05-04 01:21 | 36.68764 | -122.33052 | 33035 ft | 466 kts | 156° |
| 2026-05-04 01:21 | 36.63179 | -122.28991 | 33035 ft | 466 kts | 157° |
| 2026-05-04 01:22 | 36.57557 | -122.24911 | 33034 ft | 467 kts | 157° |
| 2026-05-04 01:22 | 36.51974 | -122.20866 | 33035 ft | 467 kts | 158° |
| 2026-05-04 01:23 | 36.46371 | -122.16813 | 33031 ft | 467 kts | 158° |
| 2026-05-04 01:23 | 36.40722 | -122.12733 | 33037 ft | 467 kts | 159° |
| 2026-05-04 01:24 | 36.35112 | -122.08687 | 33033 ft | 467 kts | 160° |
| 2026-05-04 01:24 | 36.29504 | -122.04651 | 33031 ft | 467 kts | 160° |
| 2026-05-04 01:25 | 36.23869 | -122.00602 | 33036 ft | 467 kts | 161° |
| 2026-05-04 01:25 | 36.18268 | -121.96584 | 33030 ft | 466 kts | 161° |
| 2026-05-04 01:26 | 36.12668 | -121.92574 | 33027 ft | 466 kts | 161° |
| 2026-05-04 01:26 | 36.07044 | -121.88553 | 33026 ft | 465 kts | 162° |
| 2026-05-04 01:27 | 36.01451 | -121.84535 | 33025 ft | 469 kts | 159° |
| 2026-05-04 01:27 | 35.98879 | -121.81888 | 33054 ft | 495 kts | 144° |
| 2026-05-04 01:27 | 35.96635 | -121.78600 | 33070 ft | 504 kts | 140° |
| 2026-05-04 01:28 | 35.92307 | -121.71808 | 33009 ft | 504 kts | 140° |
| 2026-05-04 01:28 | 35.87926 | -121.65027 | 33009 ft | 504 kts | 140° |
| 2026-05-04 01:29 | 35.83570 | -121.58330 | 33024 ft | 504 kts | 141° |
| 2026-05-04 01:29 | 35.79167 | -121.51582 | 33021 ft | 505 kts | 141° |
| 2026-05-04 01:30 | 35.74765 | -121.44851 | 33021 ft | 505 kts | 141° |
| 2026-05-04 01:30 | 35.70376 | -121.38152 | 33024 ft | 505 kts | 141° |
| 2026-05-04 01:31 | 35.65963 | -121.31432 | 33023 ft | 505 kts | 141° |
| 2026-05-04 01:31 | 35.61528 | -121.24690 | 33021 ft | 506 kts | 141° |
| 2026-05-04 01:32 | 35.57132 | -121.18015 | 33037 ft | 504 kts | 141° |
| 2026-05-04 01:32 | 35.52698 | -121.11307 | 33022 ft | 506 kts | 141° |
| 2026-05-04 01:33 | 35.48257 | -121.04593 | 33024 ft | 506 kts | 141° |
| 2026-05-04 01:33 | 35.43600 | -120.98219 | 33040 ft | 492 kts | 149° |
| 2026-05-04 01:34 | 35.38531 | -120.92733 | 33018 ft | 488 kts | 152° |
| 2026-05-04 01:34 | 35.33409 | -120.87247 | 33020 ft | 489 kts | 151° |
| 2026-05-04 01:35 | 35.28314 | -120.81745 | 33023 ft | 488 kts | 151° |
| 2026-05-04 01:35 | 35.23222 | -120.76247 | 33003 ft | 488 kts | 151° |
| 2026-05-04 01:36 | 35.18116 | -120.70745 | 33016 ft | 490 kts | 151° |
| 2026-05-04 01:36 | 35.13013 | -120.65256 | 33016 ft | 490 kts | 151° |
| 2026-05-04 01:37 | 35.07877 | -120.59739 | 33018 ft | 490 kts | 151° |
| 2026-05-04 01:37 | 35.02647 | -120.54597 | 33045 ft | 478 kts | 158° |
| 2026-05-04 01:38 | 34.97132 | -120.50124 | 33017 ft | 475 kts | 160° |
| 2026-05-04 01:38 | 34.91609 | -120.45682 | 33025 ft | 476 kts | 160° |
| 2026-05-04 01:39 | 34.86080 | -120.41217 | 33028 ft | 477 kts | 160° |
| 2026-05-04 01:39 | 34.80547 | -120.36750 | 33028 ft | 477 kts | 160° |
| 2026-05-04 01:40 | 34.75009 | -120.32284 | 33016 ft | 478 kts | 160° |
| 2026-05-04 01:40 | 34.69455 | -120.27818 | 33018 ft | 478 kts | 160° |
| 2026-05-04 01:41 | 34.63923 | -120.23383 | 33023 ft | 477 kts | 161° |
| 2026-05-04 01:41 | 34.58369 | -120.18944 | 33010 ft | 479 kts | 161° |
| 2026-05-04 01:42 | 34.52841 | -120.14529 | 33015 ft | 478 kts | 161° |
| 2026-05-04 01:42 | 34.48203 | -120.10833 | 33011 ft | 479 kts | 161° |
| 2026-05-04 01:43 | 34.42605 | -120.06378 | 33004 ft | 479 kts | 161° |
| 2026-05-04 01:43 | 34.37044 | -120.01957 | 33003 ft | 480 kts | 161° |
| 2026-05-04 01:44 | 34.31444 | -119.97513 | 33003 ft | 480 kts | 162° |
| 2026-05-04 01:44 | 34.25863 | -119.93092 | 33006 ft | 481 kts | 162° |
| 2026-05-04 01:45 | 34.20279 | -119.88676 | 33005 ft | 481 kts | 162° |
| 2026-05-04 01:45 | 34.11948 | -119.82067 | 32966 ft | 454 kts | 163° |
| 2026-05-04 01:46 | 34.09411 | -119.80035 | 33004 ft | 433 kts | 163° |
| 2026-05-04 01:46 | 34.07093 | -119.77610 | 32989 ft | 458 kts | 145° |
| 2026-05-04 01:46 | 34.05206 | -119.74376 | 33079 ft | 483 kts | 136° |
| 2026-05-04 01:46 | 34.03470 | -119.70851 | 33076 ft | 492 kts | 133° |
| 2026-05-04 01:47 | 34.01745 | -119.67248 | 32250 ft | 503 kts | 132° |
| 2026-05-04 01:47 | 33.99961 | -119.63559 | 31003 ft | 512 kts | 130° |
| 2026-05-04 01:47 | 33.98148 | -119.59857 | 29648 ft | 509 kts | 129° |
| 2026-05-04 01:47 | 33.96351 | -119.56235 | 28005 ft | 498 kts | 130° |
| 2026-05-04 01:48 | 33.94568 | -119.52707 | 26538 ft | 487 kts | 130° |
| 2026-05-04 01:48 | 33.92840 | -119.49280 | 26085 ft | 472 kts | 130° |
| 2026-05-04 01:48 | 33.91147 | -119.45927 | 25460 ft | 464 kts | 130° |
| 2026-05-04 01:48 | 33.89485 | -119.42636 | 24854 ft | 456 kts | 130° |
| 2026-05-04 01:49 | 33.87870 | -119.39373 | 24257 ft | 449 kts | 129° |
| 2026-05-04 01:49 | 33.86320 | -119.36179 | 23680 ft | 443 kts | 129° |
| 2026-05-04 01:49 | 33.84791 | -119.33028 | 23180 ft | 432 kts | 129° |
| 2026-05-04 01:49 | 33.83286 | -119.29943 | 22628 ft | 423 kts | 129° |
| 2026-05-04 01:50 | 33.81800 | -119.26909 | 22048 ft | 417 kts | 129° |
| 2026-05-04 01:50 | 33.80331 | -119.23921 | 21440 ft | 415 kts | 128° |
| 2026-05-04 01:50 | 33.78862 | -119.20939 | 20861 ft | 412 kts | 128° |
| 2026-05-04 01:50 | 33.77412 | -119.17986 | 20305 ft | 408 kts | 128° |
| 2026-05-04 01:51 | 33.75972 | -119.15059 | 19788 ft | 404 kts | 128° |
| 2026-05-04 01:51 | 33.74545 | -119.12157 | 19231 ft | 401 kts | 127° |
| 2026-05-04 01:51 | 33.73155 | -119.09333 | 18714 ft | 396 kts | 127° |
| 2026-05-04 01:51 | 33.71754 | -119.06492 | 18185 ft | 392 kts | 127° |
| 2026-05-04 01:52 | 33.70374 | -119.03693 | 17664 ft | 385 kts | 127° |
| 2026-05-04 01:52 | 33.69003 | -119.00951 | 17135 ft | 379 kts | 127° |
| 2026-05-04 01:52 | 33.67654 | -118.98273 | 16651 ft | 373 kts | 127° |
| 2026-05-04 01:52 | 33.66313 | -118.95616 | 16158 ft | 368 kts | 127° |
| 2026-05-04 01:53 | 33.64997 | -118.93005 | 15678 ft | 363 kts | 126° |
| 2026-05-04 01:53 | 33.63697 | -118.90422 | 15200 ft | 358 kts | 126° |
| 2026-05-04 01:53 | 33.62422 | -118.87890 | 14737 ft | 351 kts | 126° |
| 2026-05-04 01:53 | 33.61187 | -118.85438 | 14281 ft | 344 kts | 125° |
| 2026-05-04 01:54 | 33.59946 | -118.82976 | 13827 ft | 337 kts | 125° |
| 2026-05-04 01:54 | 33.58760 | -118.80625 | 13378 ft | 329 kts | 125° |
| 2026-05-04 01:54 | 33.57592 | -118.78299 | 13019 ft | 320 kts | 123° |
| 2026-05-04 01:54 | 33.56831 | -118.75801 | 12672 ft | 317 kts | 107° |
| 2026-05-04 01:55 | 33.56399 | -118.73226 | 12298 ft | 312 kts | 103° |
| 2026-05-04 01:55 | 33.56036 | -118.70697 | 12001 ft | 305 kts | 103° |
| 2026-05-04 01:55 | 33.55667 | -118.68210 | 11684 ft | 299 kts | 104° |
| 2026-05-04 01:55 | 33.55289 | -118.65782 | 11373 ft | 294 kts | 104° |
| 2026-05-04 01:56 | 33.54906 | -118.63397 | 11077 ft | 289 kts | 104° |
| 2026-05-04 01:56 | 33.54525 | -118.61051 | 10788 ft | 285 kts | 104° |
| 2026-05-04 01:56 | 33.54150 | -118.58739 | 10499 ft | 281 kts | 104° |
| 2026-05-04 01:56 | 33.53778 | -118.56455 | 10209 ft | 277 kts | 104° |
| 2026-05-04 01:57 | 33.53416 | -118.54226 | 9927 ft | 274 kts | 104° |
| 2026-05-04 01:57 | 33.53052 | -118.51992 | 9643 ft | 271 kts | 104° |
| 2026-05-04 01:57 | 33.52694 | -118.49791 | 9377 ft | 267 kts | 104° |
| 2026-05-04 01:57 | 33.52339 | -118.47613 | 9079 ft | 267 kts | 104° |
| 2026-05-04 01:58 | 33.51977 | -118.45281 | 8782 ft | 295 kts | 99° |
| 2026-05-04 01:58 | 33.51867 | -118.42797 | 8384 ft | 301 kts | 91° |
| 2026-05-04 01:58 | 33.51898 | -118.40284 | 7967 ft | 301 kts | 90° |
| 2026-05-04 01:58 | 33.51909 | -118.37786 | 7598 ft | 298 kts | 91° |
| 2026-05-04 01:59 | 33.51877 | -118.35308 | 7227 ft | 295 kts | 92° |
| 2026-05-04 01:59 | 33.51893 | -118.32903 | 6919 ft | 291 kts | 83° |
| 2026-05-04 01:59 | 33.52383 | -118.30564 | 6607 ft | 289 kts | 68° |
| 2026-05-04 01:59 | 33.53180 | -118.28361 | 6314 ft | 287 kts | 64° |
| 2026-05-04 02:00 | 33.54002 | -118.26190 | 6046 ft | 285 kts | 65° |
| 2026-05-04 02:00 | 33.54773 | -118.23995 | 5763 ft | 286 kts | 67° |
| 2026-05-04 02:00 | 33.55495 | -118.21773 | 5464 ft | 285 kts | 68° |
| 2026-05-04 02:00 | 33.56192 | -118.19573 | 5240 ft | 280 kts | 68° |
| 2026-05-04 02:01 | 33.56879 | -118.17407 | 5125 ft | 277 kts | 67° |
| 2026-05-04 02:01 | 33.57763 | -118.15376 | 5073 ft | 278 kts | 55° |
| 2026-05-04 02:01 | 33.58917 | -118.13505 | 4950 ft | 277 kts | 50° |
| 2026-05-04 02:01 | 33.60091 | -118.11679 | 4962 ft | 277 kts | 52° |
| 2026-05-04 02:02 | 33.61226 | -118.09788 | 4968 ft | 278 kts | 53° |
| 2026-05-04 02:02 | 33.62313 | -118.07868 | 4972 ft | 278 kts | 55° |
| 2026-05-04 02:02 | 33.63385 | -118.05927 | 4972 ft | 278 kts | 55° |
| 2026-05-04 02:02 | 33.64448 | -118.03995 | 4970 ft | 277 kts | 55° |
| 2026-05-04 02:03 | 33.65519 | -118.02061 | 4999 ft | 278 kts | 55° |
| 2026-05-04 02:03 | 33.66569 | -118.00168 | 4993 ft | 270 kts | 55° |
| 2026-05-04 02:03 | 33.67586 | -117.98329 | 4967 ft | 257 kts | 56° |
| 2026-05-04 02:03 | 33.68547 | -117.96584 | 4931 ft | 244 kts | 56° |
| 2026-05-04 02:04 | 33.69448 | -117.94947 | 4930 ft | 222 kts | 56° |
| 2026-05-04 02:04 | 33.70460 | -117.93690 | 4829 ft | 204 kts | 27° |
| 2026-05-04 02:04 | 33.71788 | -117.93199 | 4674 ft | 197 kts | 7° |
| 2026-05-04 02:04 | 33.73111 | -117.92772 | 4767 ft | 199 kts | 21° |
| 2026-05-04 02:05 | 33.74342 | -117.91986 | 4875 ft | 202 kts | 31° |
| 2026-05-04 02:05 | 33.75497 | -117.91092 | 5326 ft | 194 kts | 30° |
| 2026-05-04 02:05 | 33.76698 | -117.90161 | 5526 ft | 218 kts | 34° |
| 2026-05-04 02:05 | 33.77857 | -117.88954 | 5274 ft | 218 kts | 45° |
| 2026-05-04 02:06 | 33.78930 | -117.87737 | 4996 ft | 210 kts | 38° |
| 2026-05-04 02:06 | 33.80095 | -117.86687 | 4660 ft | 204 kts | 35° |
| 2026-05-04 02:06 | 33.81192 | -117.85669 | 4545 ft | 196 kts | 33° |
| 2026-05-04 02:06 | 33.82310 | -117.84673 | 4148 ft | 206 kts | 29° |
| 2026-05-04 02:07 | 33.83606 | -117.83925 | 3678 ft | 207 kts | 24° |
| 2026-05-04 02:07 | 33.84887 | -117.83183 | 3221 ft | 201 kts | 24° |
| 2026-05-04 02:07 | 33.86111 | -117.82459 | 2986 ft | 190 kts | 25° |
| 2026-05-04 02:07 | 33.87306 | -117.81748 | 3123 ft | 197 kts | 25° |
| 2026-05-04 02:08 | 33.88556 | -117.81018 | 3145 ft | 201 kts | 24° |
| 2026-05-04 02:08 | 33.89824 | -117.80287 | 3055 ft | 203 kts | 24° |
| 2026-05-04 02:08 | 33.91084 | -117.79554 | 2986 ft | 197 kts | 24° |
| 2026-05-04 02:08 | 33.92235 | -117.78685 | 3013 ft | 198 kts | 49° |
| 2026-05-04 02:09 | 33.92771 | -117.77207 | 2984 ft | 198 kts | 92° |
| 2026-05-04 02:09 | 33.92341 | -117.75698 | 3000 ft | 192 kts | 136° |
| 2026-05-04 02:09 | 33.91349 | -117.74651 | 3101 ft | 191 kts | 142° |
| 2026-05-04 02:09 | 33.90350 | -117.73566 | 3094 ft | 193 kts | 141° |
| 2026-05-04 02:10 | 33.89360 | -117.72476 | 2894 ft | 191 kts | 140° |
| 2026-05-04 02:10 | 33.88388 | -117.71409 | 2949 ft | 188 kts | 142° |
| 2026-05-04 02:10 | 33.87423 | -117.70357 | 3057 ft | 188 kts | 142° |
| 2026-05-04 02:10 | 33.86435 | -117.69337 | 3058 ft | 188 kts | 152° |
| 2026-05-04 02:11 | 33.85225 | -117.68956 | 2968 ft | 179 kts | 192° |
| 2026-05-04 02:11 | 33.84067 | -117.69435 | 3136 ft | 176 kts | 208° |
| 2026-05-04 02:11 | 33.83062 | -117.70313 | 3073 ft | 180 kts | 224° |
| 2026-05-04 02:11 | 33.82202 | -117.71401 | 2956 ft | 175 kts | 234° |
| 2026-05-04 02:12 | 33.81585 | -117.72657 | 3033 ft | 177 kts | 245° |
| 2026-05-04 02:12 | 33.81272 | -117.74103 | 3004 ft | 180 kts | 259° |
| 2026-05-04 02:12 | 33.81060 | -117.75582 | 2999 ft | 180 kts | 259° |
| 2026-05-04 02:12 | 33.80600 | -117.76928 | 2968 ft | 177 kts | 228° |
| 2026-05-04 02:13 | 33.79759 | -117.78036 | 2789 ft | 182 kts | 232° |
| 2026-05-04 02:13 | 33.79093 | -117.79294 | 2514 ft | 170 kts | 239° |
| 2026-05-04 02:13 | 33.78246 | -117.80156 | 2200 ft | 156 kts | 207° |
| 2026-05-04 02:13 | 33.77307 | -117.80633 | 2056 ft | 143 kts | 211° |
| 2026-05-04 02:14 | 33.76461 | -117.81214 | 1895 ft | 136 kts | 213° |
| 2026-05-04 02:14 | 33.75644 | -117.81742 | 1748 ft | 130 kts | 212° |
| 2026-05-04 02:14 | 33.74836 | -117.82242 | 1536 ft | 134 kts | 212° |
| 2026-05-04 02:14 | 33.74005 | -117.82781 | 1372 ft | 137 kts | 211° |
| 2026-05-04 02:15 | 33.73161 | -117.83321 | 1179 ft | 138 kts | 209° |
| 2026-05-04 02:15 | 33.72304 | -117.83866 | 996 ft | 140 kts | 210° |
| 2026-05-04 02:15 | 33.71443 | -117.84410 | 813 ft | 141 kts | 211° |
| 2026-05-04 02:15 | 33.70588 | -117.84959 | 619 ft | 140 kts | 207° |
| 2026-05-04 02:16 | 33.69753 | -117.85509 | 415 ft | 134 kts | 208° |
| 2026-05-04 02:16 | 33.68930 | -117.86029 | 239 ft | 133 kts | 207° |
| 2026-05-04 02:16 | 33.68109 | -117.86543 | 84 ft | 132 kts | 208° |
| 2026-05-04 02:16 | 33.67360 | -117.87015 | 53 ft | 100 kts | 208° |
| 2026-05-04 02:17 | 33.66766 | -117.87345 | 65 ft | 60 kts | 177° |
| 2026-05-04 02:17 | 33.66648 | -117.87268 | 63 ft | 4 kts | 77° |
| 2026-05-04 02:17 | 33.66690 | -117.87253 | 63 ft | 12 kts | 356° |
| 2026-05-04 02:17 | 33.66752 | -117.87260 | 61 ft | 4 kts | 13° |
| 2026-05-04 02:18 | 33.66755 | -117.87258 | 61 ft | 0 kts | 37° |
| 2026-05-04 02:18 | 33.66758 | -117.87255 | 63 ft | 0 kts | 37° |
| 2026-05-04 02:19 | 33.66765 | -117.87248 | 60 ft | 6 kts | 41° |
| 2026-05-04 02:20 | 33.66818 | -117.87191 | 62 ft | 13 kts | 41° |
| 2026-05-04 02:20 | 33.66895 | -117.87111 | 59 ft | 17 kts | 40° |
| 2026-05-04 02:20 | 33.66949 | -117.87058 | 59 ft | 0 kts | 40° |
| 2026-05-04 02:20 | 33.66977 | -117.87029 | 58 ft | 14 kts | 39° |
| 2026-05-04 02:21 | 33.67072 | -117.86934 | 57 ft | 19 kts | 41° |
| 2026-05-04 02:21 | 33.67180 | -117.86835 | 55 ft | 21 kts | 30° |
| 2026-05-04 02:21 | 33.67305 | -117.86736 | 56 ft | 22 kts | 51° |
| 2026-05-04 02:21 | 33.67396 | -117.86658 | 58 ft | 16 kts | 24° |
| 2026-05-04 02:22 | 33.67506 | -117.86590 | 58 ft | 20 kts | 28° |
| 2026-05-04 02:22 | 33.67638 | -117.86506 | 56 ft | 23 kts | 29° |
| 2026-05-04 02:22 | 33.67718 | -117.86445 | 52 ft | 5 kts | 53° |
| 2026-05-04 02:22 | 33.67732 | -117.86407 | 52 ft | 2 kts | 97° |
| 2026-05-04 02:23 | 33.67726 | -117.86389 | 52 ft | 3 kts | 117° |
| 2026-05-04 02:23 | 33.67719 | -117.86375 | 50 ft | 0 kts | 117° |
| 2026-05-04 02:23 | 33.67716 | -117.86367 | 51 ft | 0 kts | 118° |